sensor_id;sensor_type;location;lat;lon;timestamp;P1;durP1;ratioP1;P2;durP2;ratioP2
71730;SDS011;65964;43.496;3.710;2023-02-21T00:01:50;23.80;;;13.07;;
71730;SDS011;65964;43.496;3.710;2023-02-21T00:04:35;19.02;;;13.00;;
71730;SDS011;65964;43.496;3.710;2023-02-21T00:07:20;19.92;;;13.18;;
71730;SDS011;65964;43.496;3.710;2023-02-21T00:10:05;21.23;;;13.25;;
71730;SDS011;65964;43.496;3.710;2023-02-21T00:12:50;19.80;;;13.02;;
71730;SDS011;65964;43.496;3.710;2023-02-21T00:15:35;21.23;;;13.25;;
71730;SDS011;65964;43.496;3.710;2023-02-21T00:18:19;20.05;;;13.18;;
71730;SDS011;65964;43.496;3.710;2023-02-21T00:21:04;21.05;;;12.52;;
71730;SDS011;65964;43.496;3.710;2023-02-21T00:23:49;20.83;;;13.05;;
71730;SDS011;65964;43.496;3.710;2023-02-21T00:26:34;22.63;;;13.77;;
71730;SDS011;65964;43.496;3.710;2023-02-21T00:29:19;21.40;;;14.40;;
71730;SDS011;65964;43.496;3.710;2023-02-21T00:32:03;21.83;;;14.02;;
71730;SDS011;65964;43.496;3.710;2023-02-21T00:34:49;20.48;;;13.63;;
71730;SDS011;65964;43.496;3.710;2023-02-21T00:37:33;23.10;;;13.38;;
71730;SDS011;65964;43.496;3.710;2023-02-21T00:40:18;19.80;;;13.13;;
71730;SDS011;65964;43.496;3.710;2023-02-21T00:43:03;21.30;;;13.98;;
71730;SDS011;65964;43.496;3.710;2023-02-21T00:45:47;21.50;;;13.75;;
71730;SDS011;65964;43.496;3.710;2023-02-21T00:48:32;24.20;;;14.68;;
71730;SDS011;65964;43.496;3.710;2023-02-21T00:51:16;23.33;;;14.55;;
71730;SDS011;65964;43.496;3.710;2023-02-21T00:54:01;21.55;;;14.57;;
71730;SDS011;65964;43.496;3.710;2023-02-21T00:56:46;25.90;;;15.73;;
71730;SDS011;65964;43.496;3.710;2023-02-21T00:59:30;25.55;;;16.25;;
71730;SDS011;65964;43.496;3.710;2023-02-21T01:02:15;26.92;;;16.88;;
71730;SDS011;65964;43.496;3.710;2023-02-21T01:05:00;26.92;;;17.00;;
71730;SDS011;65964;43.496;3.710;2023-02-21T01:07:45;27.02;;;17.48;;
71730;SDS011;65964;43.496;3.710;2023-02-21T01:10:30;30.60;;;18.77;;
71730;SDS011;65964;43.496;3.710;2023-02-21T01:13:14;25.27;;;16.42;;
71730;SDS011;65964;43.496;3.710;2023-02-21T01:15:58;24.08;;;16.20;;
71730;SDS011;65964;43.496;3.710;2023-02-21T01:18:43;31.08;;;17.90;;
71730;SDS011;65964;43.496;3.710;2023-02-21T01:21:28;23.05;;;17.63;;
71730;SDS011;65964;43.496;3.710;2023-02-21T01:24:13;25.48;;;15.52;;
71730;SDS011;65964;43.496;3.710;2023-02-21T01:26:58;21.33;;;14.98;;
71730;SDS011;65964;43.496;3.710;2023-02-21T01:29:43;22.73;;;15.02;;
71730;SDS011;65964;43.496;3.710;2023-02-21T01:32:27;23.55;;;14.60;;
71730;SDS011;65964;43.496;3.710;2023-02-21T01:35:12;22.48;;;14.70;;
71730;SDS011;65964;43.496;3.710;2023-02-21T01:37:57;22.42;;;14.43;;
71730;SDS011;65964;43.496;3.710;2023-02-21T01:40:41;24.30;;;15.07;;
71730;SDS011;65964;43.496;3.710;2023-02-21T01:43:26;23.15;;;15.45;;
71730;SDS011;65964;43.496;3.710;2023-02-21T01:46:19;21.58;;;15.63;;
71730;SDS011;65964;43.496;3.710;2023-02-21T01:49:07;25.35;;;15.93;;
71730;SDS011;65964;43.496;3.710;2023-02-21T01:51:52;23.60;;;16.08;;
71730;SDS011;65964;43.496;3.710;2023-02-21T01:54:39;24.70;;;16.13;;
71730;SDS011;65964;43.496;3.710;2023-02-21T01:57:25;24.73;;;15.35;;
71730;SDS011;65964;43.496;3.710;2023-02-21T02:00:11;30.27;;;16.05;;
71730;SDS011;65964;43.496;3.710;2023-02-21T02:05:46;26.27;;;16.30;;
71730;SDS011;65964;43.496;3.710;2023-02-21T02:08:32;28.60;;;16.50;;
71730;SDS011;65964;43.496;3.710;2023-02-21T02:12:05;28.20;;;17.33;;
71730;SDS011;65964;43.496;3.710;2023-02-21T02:39:36;25.80;;;15.48;;
71730;SDS011;65964;43.496;3.710;2023-02-21T02:42:10;24.20;;;15.85;;
71730;SDS011;65964;43.496;3.710;2023-02-21T02:44:41;27.08;;;15.07;;
71730;SDS011;65964;43.496;3.710;2023-02-21T02:47:11;28.15;;;16.38;;
71730;SDS011;65964;43.496;3.710;2023-02-21T02:49:40;25.95;;;16.40;;
71730;SDS011;65964;43.496;3.710;2023-02-21T02:52:08;25.75;;;16.75;;
71730;SDS011;65964;43.496;3.710;2023-02-21T02:54:34;26.70;;;16.20;;
71730;SDS011;65964;43.496;3.710;2023-02-21T02:57:00;28.40;;;16.67;;
71730;SDS011;65964;43.496;3.710;2023-02-21T02:59:28;23.17;;;16.30;;
71730;SDS011;65964;43.496;3.710;2023-02-21T03:14:54;24.70;;;16.75;;
71730;SDS011;65964;43.496;3.710;2023-02-21T03:17:22;24.73;;;16.90;;
71730;SDS011;65964;43.496;3.710;2023-02-21T03:19:49;24.33;;;15.68;;
71730;SDS011;65964;43.496;3.710;2023-02-21T03:22:17;27.73;;;16.13;;
71730;SDS011;65964;43.496;3.710;2023-02-21T03:24:44;25.02;;;16.48;;
71730;SDS011;65964;43.496;3.710;2023-02-21T03:27:12;25.35;;;16.92;;
71730;SDS011;65964;43.496;3.710;2023-02-21T03:29:39;27.27;;;18.02;;
71730;SDS011;65964;43.496;3.710;2023-02-21T03:32:13;25.35;;;17.23;;
71730;SDS011;65964;43.496;3.710;2023-02-21T03:34:41;23.98;;;17.25;;
71730;SDS011;65964;43.496;3.710;2023-02-21T03:37:08;28.65;;;18.60;;
71730;SDS011;65964;43.496;3.710;2023-02-21T03:39:35;28.10;;;18.80;;
71730;SDS011;65964;43.496;3.710;2023-02-21T03:42:01;28.10;;;17.67;;
71730;SDS011;65964;43.496;3.710;2023-02-21T03:44:27;30.35;;;17.95;;
71730;SDS011;65964;43.496;3.710;2023-02-21T03:46:53;27.25;;;17.02;;
71730;SDS011;65964;43.496;3.710;2023-02-21T03:49:19;28.00;;;18.20;;
71730;SDS011;65964;43.496;3.710;2023-02-21T03:51:45;28.48;;;16.95;;
71730;SDS011;65964;43.496;3.710;2023-02-21T03:54:11;26.02;;;16.98;;
71730;SDS011;65964;43.496;3.710;2023-02-21T03:56:37;26.85;;;17.13;;
71730;SDS011;65964;43.496;3.710;2023-02-21T03:59:03;26.98;;;16.85;;
71730;SDS011;65964;43.496;3.710;2023-02-21T04:01:29;25.55;;;15.90;;
71730;SDS011;65964;43.496;3.710;2023-02-21T04:03:55;23.67;;;16.45;;
71730;SDS011;65964;43.496;3.710;2023-02-21T04:06:21;29.60;;;16.52;;
71730;SDS011;65964;43.496;3.710;2023-02-21T04:08:47;23.25;;;15.80;;
71730;SDS011;65964;43.496;3.710;2023-02-21T04:11:15;27.58;;;16.55;;
71730;SDS011;65964;43.496;3.710;2023-02-21T04:13:42;28.10;;;15.52;;
71730;SDS011;65964;43.496;3.710;2023-02-21T04:16:08;25.80;;;16.13;;
71730;SDS011;65964;43.496;3.710;2023-02-21T04:18:34;26.52;;;16.58;;
71730;SDS011;65964;43.496;3.710;2023-02-21T04:21:01;25.70;;;15.98;;
71730;SDS011;65964;43.496;3.710;2023-02-21T04:23:27;27.23;;;16.42;;
71730;SDS011;65964;43.496;3.710;2023-02-21T04:25:53;26.75;;;16.38;;
71730;SDS011;65964;43.496;3.710;2023-02-21T04:28:19;28.30;;;16.60;;
71730;SDS011;65964;43.496;3.710;2023-02-21T04:30:45;24.33;;;16.20;;
71730;SDS011;65964;43.496;3.710;2023-02-21T04:33:11;26.20;;;16.08;;
71730;SDS011;65964;43.496;3.710;2023-02-21T04:35:37;25.98;;;15.40;;
71730;SDS011;65964;43.496;3.710;2023-02-21T04:38:03;27.73;;;16.27;;
71730;SDS011;65964;43.496;3.710;2023-02-21T04:40:29;25.30;;;15.80;;
71730;SDS011;65964;43.496;3.710;2023-02-21T04:42:55;23.88;;;15.15;;
71730;SDS011;65964;43.496;3.710;2023-02-21T04:45:21;26.98;;;15.60;;
71730;SDS011;65964;43.496;3.710;2023-02-21T04:47:47;25.75;;;14.95;;
71730;SDS011;65964;43.496;3.710;2023-02-21T04:50:13;29.10;;;14.65;;
71730;SDS011;65964;43.496;3.710;2023-02-21T04:52:39;27.45;;;15.75;;
71730;SDS011;65964;43.496;3.710;2023-02-21T04:55:06;23.77;;;15.80;;
71730;SDS011;65964;43.496;3.710;2023-02-21T04:57:32;25.63;;;15.90;;
71730;SDS011;65964;43.496;3.710;2023-02-21T04:59:58;24.05;;;15.27;;
71730;SDS011;65964;43.496;3.710;2023-02-21T05:02:25;31.25;;;15.60;;
71730;SDS011;65964;43.496;3.710;2023-02-21T05:04:51;26.15;;;15.63;;
71730;SDS011;65964;43.496;3.710;2023-02-21T05:07:17;24.63;;;14.68;;
71730;SDS011;65964;43.496;3.710;2023-02-21T05:09:43;23.63;;;15.57;;
71730;SDS011;65964;43.496;3.710;2023-02-21T05:12:09;25.65;;;15.98;;
71730;SDS011;65964;43.496;3.710;2023-02-21T05:14:36;25.38;;;15.38;;
71730;SDS011;65964;43.496;3.710;2023-02-21T05:17:03;28.35;;;15.70;;
71730;SDS011;65964;43.496;3.710;2023-02-21T05:19:29;24.20;;;15.15;;
71730;SDS011;65964;43.496;3.710;2023-02-21T05:21:55;29.45;;;16.65;;
71730;SDS011;65964;43.496;3.710;2023-02-21T05:24:23;22.85;;;14.85;;
71730;SDS011;65964;43.496;3.710;2023-02-21T05:26:49;24.40;;;16.02;;
71730;SDS011;65964;43.496;3.710;2023-02-21T05:29:16;23.88;;;14.85;;
71730;SDS011;65964;43.496;3.710;2023-02-21T05:31:42;24.50;;;15.60;;
71730;SDS011;65964;43.496;3.710;2023-02-21T05:34:09;22.90;;;15.68;;
71730;SDS011;65964;43.496;3.710;2023-02-21T05:36:35;25.48;;;15.50;;
71730;SDS011;65964;43.496;3.710;2023-02-21T05:39:02;33.92;;;17.45;;
71730;SDS011;65964;43.496;3.710;2023-02-21T05:41:28;39.85;;;23.33;;
71730;SDS011;65964;43.496;3.710;2023-02-21T05:43:54;34.42;;;24.20;;
71730;SDS011;65964;43.496;3.710;2023-02-21T05:46:27;31.42;;;20.30;;
71730;SDS011;65964;43.496;3.710;2023-02-21T05:48:54;28.63;;;16.02;;
71730;SDS011;65964;43.496;3.710;2023-02-21T05:51:20;26.52;;;15.95;;
71730;SDS011;65964;43.496;3.710;2023-02-21T05:53:46;23.75;;;14.70;;
71730;SDS011;65964;43.496;3.710;2023-02-21T05:56:12;28.65;;;15.30;;
71730;SDS011;65964;43.496;3.710;2023-02-21T05:58:39;23.90;;;14.80;;
71730;SDS011;65964;43.496;3.710;2023-02-21T06:01:05;25.35;;;15.48;;
71730;SDS011;65964;43.496;3.710;2023-02-21T06:03:31;24.77;;;15.40;;
71730;SDS011;65964;43.496;3.710;2023-02-21T06:05:57;26.65;;;15.65;;
71730;SDS011;65964;43.496;3.710;2023-02-21T06:08:23;26.85;;;16.70;;
71730;SDS011;65964;43.496;3.710;2023-02-21T06:10:50;26.58;;;15.05;;
71730;SDS011;65964;43.496;3.710;2023-02-21T06:13:16;23.58;;;15.52;;
71730;SDS011;65964;43.496;3.710;2023-02-21T06:15:42;26.15;;;15.70;;
71730;SDS011;65964;43.496;3.710;2023-02-21T06:18:08;31.35;;;16.00;;
71730;SDS011;65964;43.496;3.710;2023-02-21T06:20:34;27.13;;;14.70;;
71730;SDS011;65964;43.496;3.710;2023-02-21T06:23:00;24.15;;;14.60;;
71730;SDS011;65964;43.496;3.710;2023-02-21T06:25:26;28.88;;;16.00;;
71730;SDS011;65964;43.496;3.710;2023-02-21T06:27:52;26.08;;;14.38;;
71730;SDS011;65964;43.496;3.710;2023-02-21T06:30:19;26.77;;;15.60;;
71730;SDS011;65964;43.496;3.710;2023-02-21T06:32:45;26.60;;;16.33;;
71730;SDS011;65964;43.496;3.710;2023-02-21T06:35:11;44.03;;;25.85;;
71730;SDS011;65964;43.496;3.710;2023-02-21T06:37:37;26.15;;;15.50;;
71730;SDS011;65964;43.496;3.710;2023-02-21T06:40:03;27.45;;;15.93;;
71730;SDS011;65964;43.496;3.710;2023-02-21T06:42:30;27.92;;;14.98;;
71730;SDS011;65964;43.496;3.710;2023-02-21T06:44:56;23.77;;;14.90;;
71730;SDS011;65964;43.496;3.710;2023-02-21T06:47:22;30.38;;;15.45;;
71730;SDS011;65964;43.496;3.710;2023-02-21T06:49:48;25.20;;;14.27;;
71730;SDS011;65964;43.496;3.710;2023-02-21T06:52:14;22.40;;;13.38;;
71730;SDS011;65964;43.496;3.710;2023-02-21T06:54:40;26.17;;;15.00;;
71730;SDS011;65964;43.496;3.710;2023-02-21T06:57:06;45.67;;;32.45;;
71730;SDS011;65964;43.496;3.710;2023-02-21T06:59:32;29.80;;;19.58;;
71730;SDS011;65964;43.496;3.710;2023-02-21T07:01:58;24.10;;;15.20;;
71730;SDS011;65964;43.496;3.710;2023-02-21T07:04:25;23.35;;;14.90;;
71730;SDS011;65964;43.496;3.710;2023-02-21T07:06:51;26.83;;;14.40;;
71730;SDS011;65964;43.496;3.710;2023-02-21T07:09:17;20.52;;;13.65;;
71730;SDS011;65964;43.496;3.710;2023-02-21T07:11:43;21.98;;;14.85;;
71730;SDS011;65964;43.496;3.710;2023-02-21T07:14:11;28.75;;;19.23;;
71730;SDS011;65964;43.496;3.710;2023-02-21T07:16:37;33.65;;;20.67;;
71730;SDS011;65964;43.496;3.710;2023-02-21T07:19:03;30.10;;;15.95;;
71730;SDS011;65964;43.496;3.710;2023-02-21T07:21:29;26.17;;;16.15;;
71730;SDS011;65964;43.496;3.710;2023-02-21T07:23:55;29.70;;;17.48;;
71730;SDS011;65964;43.496;3.710;2023-02-21T07:26:21;27.45;;;15.88;;
71730;SDS011;65964;43.496;3.710;2023-02-21T07:28:48;28.95;;;17.90;;
71730;SDS011;65964;43.496;3.710;2023-02-21T07:31:14;29.45;;;17.38;;
71730;SDS011;65964;43.496;3.710;2023-02-21T07:33:40;23.52;;;15.23;;
71730;SDS011;65964;43.496;3.710;2023-02-21T07:36:06;28.83;;;18.33;;
71730;SDS011;65964;43.496;3.710;2023-02-21T07:38:33;24.98;;;15.60;;
71730;SDS011;65964;43.496;3.710;2023-02-21T07:40:59;26.25;;;14.88;;
71730;SDS011;65964;43.496;3.710;2023-02-21T07:43:26;34.20;;;15.60;;
71730;SDS011;65964;43.496;3.710;2023-02-21T07:45:52;28.50;;;16.85;;
71730;SDS011;65964;43.496;3.710;2023-02-21T07:48:19;31.70;;;18.50;;
71730;SDS011;65964;43.496;3.710;2023-02-21T07:50:45;31.75;;;19.73;;
71730;SDS011;65964;43.496;3.710;2023-02-21T07:53:12;30.52;;;19.08;;
71730;SDS011;65964;43.496;3.710;2023-02-21T07:55:38;24.83;;;15.77;;
71730;SDS011;65964;43.496;3.710;2023-02-21T07:58:04;32.72;;;19.80;;
71730;SDS011;65964;43.496;3.710;2023-02-21T08:00:31;36.38;;;20.88;;
71730;SDS011;65964;43.496;3.710;2023-02-21T08:02:57;35.40;;;19.23;;
71730;SDS011;65964;43.496;3.710;2023-02-21T08:05:23;30.02;;;16.60;;
71730;SDS011;65964;43.496;3.710;2023-02-21T08:07:49;24.92;;;15.70;;
71730;SDS011;65964;43.496;3.710;2023-02-21T08:10:22;34.58;;;20.67;;
71730;SDS011;65964;43.496;3.710;2023-02-21T08:12:49;26.92;;;16.60;;
71730;SDS011;65964;43.496;3.710;2023-02-21T08:15:15;28.83;;;15.70;;
71730;SDS011;65964;43.496;3.710;2023-02-21T08:17:41;28.35;;;15.82;;
71730;SDS011;65964;43.496;3.710;2023-02-21T08:20:07;36.70;;;17.13;;
71730;SDS011;65964;43.496;3.710;2023-02-21T08:22:35;35.50;;;21.73;;
71730;SDS011;65964;43.496;3.710;2023-02-21T08:25:01;39.08;;;19.98;;
71730;SDS011;65964;43.496;3.710;2023-02-21T08:27:27;32.05;;;18.02;;
71730;SDS011;65964;43.496;3.710;2023-02-21T08:29:53;30.83;;;17.15;;
71730;SDS011;65964;43.496;3.710;2023-02-21T08:32:19;33.50;;;19.40;;
71730;SDS011;65964;43.496;3.710;2023-02-21T08:34:46;29.30;;;17.40;;
71730;SDS011;65964;43.496;3.710;2023-02-21T08:37:12;33.22;;;17.63;;
71730;SDS011;65964;43.496;3.710;2023-02-21T08:39:44;34.33;;;16.48;;
71730;SDS011;65964;43.496;3.710;2023-02-21T08:42:11;28.92;;;14.43;;
71730;SDS011;65964;43.496;3.710;2023-02-21T08:44:37;29.13;;;17.45;;
71730;SDS011;65964;43.496;3.710;2023-02-21T08:47:03;25.98;;;15.00;;
71730;SDS011;65964;43.496;3.710;2023-02-21T08:49:29;27.10;;;14.77;;
71730;SDS011;65964;43.496;3.710;2023-02-21T08:51:55;25.48;;;14.63;;
71730;SDS011;65964;43.496;3.710;2023-02-21T08:54:21;31.65;;;16.58;;
71730;SDS011;65964;43.496;3.710;2023-02-21T08:56:47;29.48;;;16.77;;
71730;SDS011;65964;43.496;3.710;2023-02-21T08:59:14;27.90;;;16.63;;
71730;SDS011;65964;43.496;3.710;2023-02-21T09:01:40;26.27;;;17.40;;
71730;SDS011;65964;43.496;3.710;2023-02-21T09:04:06;32.60;;;16.17;;
71730;SDS011;65964;43.496;3.710;2023-02-21T09:06:32;30.33;;;16.60;;
71730;SDS011;65964;43.496;3.710;2023-02-21T09:08:58;25.75;;;15.45;;
71730;SDS011;65964;43.496;3.710;2023-02-21T09:11:24;26.10;;;15.50;;
71730;SDS011;65964;43.496;3.710;2023-02-21T09:13:50;22.73;;;14.82;;
71730;SDS011;65964;43.496;3.710;2023-02-21T09:16:19;27.65;;;15.43;;
71730;SDS011;65964;43.496;3.710;2023-02-21T09:18:52;34.88;;;15.85;;
71730;SDS011;65964;43.496;3.710;2023-02-21T09:21:18;27.20;;;15.50;;
71730;SDS011;65964;43.496;3.710;2023-02-21T09:23:44;24.13;;;14.73;;
71730;SDS011;65964;43.496;3.710;2023-02-21T09:26:10;34.42;;;18.52;;
71730;SDS011;65964;43.496;3.710;2023-02-21T09:28:36;25.98;;;17.35;;
71730;SDS011;65964;43.496;3.710;2023-02-21T09:31:07;25.83;;;14.75;;
71730;SDS011;65964;43.496;3.710;2023-02-21T09:33:35;28.27;;;15.57;;
71730;SDS011;65964;43.496;3.710;2023-02-21T09:36:08;26.30;;;14.90;;
71730;SDS011;65964;43.496;3.710;2023-02-21T09:38:34;21.80;;;14.00;;
71730;SDS011;65964;43.496;3.710;2023-02-21T09:41:00;23.83;;;15.75;;
71730;SDS011;65964;43.496;3.710;2023-02-21T09:43:44;23.08;;;14.95;;
71730;SDS011;65964;43.496;3.710;2023-02-21T09:46:16;25.15;;;15.38;;
71730;SDS011;65964;43.496;3.710;2023-02-21T09:48:43;22.33;;;14.82;;
71730;SDS011;65964;43.496;3.710;2023-02-21T09:51:10;25.58;;;14.95;;
71730;SDS011;65964;43.496;3.710;2023-02-21T09:53:38;32.17;;;15.32;;
71730;SDS011;65964;43.496;3.710;2023-02-21T09:58:43;24.30;;;14.73;;
71730;SDS011;65964;43.496;3.710;2023-02-21T10:01:57;24.15;;;14.32;;
71730;SDS011;65964;43.496;3.710;2023-02-21T10:04:01;23.58;;;14.23;;
71730;SDS011;65964;43.496;3.710;2023-02-21T10:17:09;25.60;;;13.45;;
71730;SDS011;65964;43.496;3.710;2023-02-21T10:19:39;24.55;;;13.35;;
71730;SDS011;65964;43.496;3.710;2023-02-21T10:22:12;22.15;;;13.38;;
71730;SDS011;65964;43.496;3.710;2023-02-21T10:24:39;24.50;;;15.18;;
71730;SDS011;65964;43.496;3.710;2023-02-21T10:27:06;26.55;;;13.63;;
71730;SDS011;65964;43.496;3.710;2023-02-21T10:29:41;27.80;;;14.90;;
71730;SDS011;65964;43.496;3.710;2023-02-21T10:32:09;23.88;;;13.50;;
71730;SDS011;65964;43.496;3.710;2023-02-21T10:34:35;25.42;;;13.48;;
71730;SDS011;65964;43.496;3.710;2023-02-21T10:37:23;26.55;;;13.80;;
71730;SDS011;65964;43.496;3.710;2023-02-21T10:42:42;26.58;;;14.90;;
71730;SDS011;65964;43.496;3.710;2023-02-21T10:45:08;25.88;;;13.50;;
71730;SDS011;65964;43.496;3.710;2023-02-21T10:50:05;23.40;;;13.02;;
71730;SDS011;65964;43.496;3.710;2023-02-21T10:52:36;23.10;;;14.05;;
71730;SDS011;65964;43.496;3.710;2023-02-21T10:55:14;21.80;;;11.30;;
71730;SDS011;65964;43.496;3.710;2023-02-21T10:57:44;25.20;;;11.88;;
71730;SDS011;65964;43.496;3.710;2023-02-21T11:00:27;23.38;;;11.75;;
71730;SDS011;65964;43.496;3.710;2023-02-21T11:02:56;24.33;;;10.82;;
71730;SDS011;65964;43.496;3.710;2023-02-21T11:05:22;22.75;;;11.13;;
71730;SDS011;65964;43.496;3.710;2023-02-21T11:07:59;19.65;;;9.30;;
71730;SDS011;65964;43.496;3.710;2023-02-21T11:19:04;18.38;;;9.85;;
71730;SDS011;65964;43.496;3.710;2023-02-21T11:21:30;21.88;;;10.63;;
71730;SDS011;65964;43.496;3.710;2023-02-21T11:24:00;24.85;;;10.43;;
71730;SDS011;65964;43.496;3.710;2023-02-21T11:26:28;19.00;;;10.60;;
71730;SDS011;65964;43.496;3.710;2023-02-21T11:28:54;21.40;;;11.43;;
71730;SDS011;65964;43.496;3.710;2023-02-21T11:31:30;20.15;;;11.30;;
71730;SDS011;65964;43.496;3.710;2023-02-21T11:34:03;22.15;;;10.90;;
71730;SDS011;65964;43.496;3.710;2023-02-21T11:36:40;21.65;;;11.48;;
71730;SDS011;65964;43.496;3.710;2023-02-21T11:39:14;21.65;;;10.85;;
71730;SDS011;65964;43.496;3.710;2023-02-21T11:47:18;23.60;;;12.38;;
71730;SDS011;65964;43.496;3.710;2023-02-21T11:52:31;26.08;;;12.52;;
71730;SDS011;65964;43.496;3.710;2023-02-21T11:54:58;21.15;;;13.52;;
71730;SDS011;65964;43.496;3.710;2023-02-21T12:12:58;24.85;;;13.02;;
71730;SDS011;65964;43.496;3.710;2023-02-21T12:49:23;14.55;;;7.40;;
71730;SDS011;65964;43.496;3.710;2023-02-21T12:57:12;17.23;;;7.20;;
71730;SDS011;65964;43.496;3.710;2023-02-21T12:59:44;17.90;;;7.07;;
71730;SDS011;65964;43.496;3.710;2023-02-21T13:02:18;15.98;;;6.32;;
71730;SDS011;65964;43.496;3.710;2023-02-21T13:04:47;11.95;;;5.97;;
71730;SDS011;65964;43.496;3.710;2023-02-21T13:07:17;13.82;;;5.68;;
71730;SDS011;65964;43.496;3.710;2023-02-21T13:12:19;11.10;;;6.13;;
71730;SDS011;65964;43.496;3.710;2023-02-21T13:15:00;9.85;;;5.65;;
71730;SDS011;65964;43.496;3.710;2023-02-21T13:17:27;8.60;;;5.72;;
71730;SDS011;65964;43.496;3.710;2023-02-21T13:19:54;13.32;;;5.78;;
71730;SDS011;65964;43.496;3.710;2023-02-21T13:25:35;10.98;;;5.00;;
71730;SDS011;65964;43.496;3.710;2023-02-21T13:33:00;12.57;;;5.32;;
71730;SDS011;65964;43.496;3.710;2023-02-21T13:35:33;10.82;;;5.75;;
71730;SDS011;65964;43.496;3.710;2023-02-21T13:38:00;14.40;;;5.55;;
71730;SDS011;65964;43.496;3.710;2023-02-21T13:40:32;12.85;;;5.70;;
71730;SDS011;65964;43.496;3.710;2023-02-21T13:43:44;11.18;;;5.75;;
71730;SDS011;65964;43.496;3.710;2023-02-21T13:45:45;15.23;;;6.07;;
71730;SDS011;65964;43.496;3.710;2023-02-21T13:50:50;14.27;;;5.75;;
71730;SDS011;65964;43.496;3.710;2023-02-21T13:53:17;14.18;;;5.70;;
71730;SDS011;65964;43.496;3.710;2023-02-21T13:56:17;13.00;;;5.93;;
71730;SDS011;65964;43.496;3.710;2023-02-21T13:58:37;12.55;;;5.97;;
71730;SDS011;65964;43.496;3.710;2023-02-21T14:01:13;14.60;;;6.45;;
71730;SDS011;65964;43.496;3.710;2023-02-21T14:03:40;17.15;;;6.60;;
71730;SDS011;65964;43.496;3.710;2023-02-21T14:11:29;14.00;;;5.93;;
71730;SDS011;65964;43.496;3.710;2023-02-21T14:14:01;9.52;;;5.30;;
71730;SDS011;65964;43.496;3.710;2023-02-21T14:16:36;11.73;;;5.50;;
71730;SDS011;65964;43.496;3.710;2023-02-21T14:19:06;15.13;;;5.83;;
71730;SDS011;65964;43.496;3.710;2023-02-21T14:24:24;12.65;;;5.45;;
71730;SDS011;65964;43.496;3.710;2023-02-21T14:29:37;18.33;;;5.95;;
71730;SDS011;65964;43.496;3.710;2023-02-21T14:34:39;16.45;;;6.22;;
71730;SDS011;65964;43.496;3.710;2023-02-21T14:39:38;9.52;;;5.13;;
71730;SDS011;65964;43.496;3.710;2023-02-21T14:54:50;15.38;;;5.75;;
71730;SDS011;65964;43.496;3.710;2023-02-21T15:05:09;12.13;;;4.88;;
71730;SDS011;65964;43.496;3.710;2023-02-21T15:10:30;15.02;;;5.35;;
71730;SDS011;65964;43.496;3.710;2023-02-21T15:13:00;16.00;;;6.68;;
71730;SDS011;65964;43.496;3.710;2023-02-21T15:18:03;13.82;;;5.40;;
71730;SDS011;65964;43.496;3.710;2023-02-21T15:20:30;10.48;;;5.15;;
71730;SDS011;65964;43.496;3.710;2023-02-21T15:23:19;12.80;;;5.53;;
71730;SDS011;65964;43.496;3.710;2023-02-21T15:25:52;12.57;;;5.28;;
71730;SDS011;65964;43.496;3.710;2023-02-21T15:28:20;12.50;;;5.18;;
71730;SDS011;65964;43.496;3.710;2023-02-21T15:31:04;10.77;;;5.05;;
71730;SDS011;65964;43.496;3.710;2023-02-21T15:33:33;11.40;;;5.35;;
71730;SDS011;65964;43.496;3.710;2023-02-21T15:36:04;12.50;;;5.00;;
71730;SDS011;65964;43.496;3.710;2023-02-21T15:40:59;17.05;;;7.68;;
71730;SDS011;65964;43.496;3.710;2023-02-21T15:43:32;16.50;;;5.85;;
71730;SDS011;65964;43.496;3.710;2023-02-21T15:46:01;11.77;;;4.97;;
71730;SDS011;65964;43.496;3.710;2023-02-21T15:48:28;16.45;;;5.63;;
71730;SDS011;65964;43.496;3.710;2023-02-21T15:50:58;14.07;;;5.45;;
71730;SDS011;65964;43.496;3.710;2023-02-21T15:53:26;13.73;;;5.00;;
71730;SDS011;65964;43.496;3.710;2023-02-21T15:55:53;15.82;;;4.82;;
71730;SDS011;65964;43.496;3.710;2023-02-21T15:58:23;14.00;;;5.20;;
71730;SDS011;65964;43.496;3.710;2023-02-21T16:01:04;12.38;;;5.05;;
71730;SDS011;65964;43.496;3.710;2023-02-21T16:11:17;13.93;;;5.68;;
71730;SDS011;65964;43.496;3.710;2023-02-21T16:13:44;16.50;;;5.28;;
71730;SDS011;65964;43.496;3.710;2023-02-21T16:16:10;14.13;;;5.30;;
71730;SDS011;65964;43.496;3.710;2023-02-21T16:18:36;13.68;;;5.03;;
71730;SDS011;65964;43.496;3.710;2023-02-21T16:21:07;14.65;;;5.43;;
71730;SDS011;65964;43.496;3.710;2023-02-21T16:23:42;11.45;;;5.78;;
71730;SDS011;65964;43.496;3.710;2023-02-21T16:28:40;18.65;;;6.97;;
71730;SDS011;65964;43.496;3.710;2023-02-21T16:31:09;11.98;;;6.93;;
71730;SDS011;65964;43.496;3.710;2023-02-21T16:33:38;23.38;;;13.32;;
71730;SDS011;65964;43.496;3.710;2023-02-21T16:36:06;21.55;;;11.68;;
71730;SDS011;65964;43.496;3.710;2023-02-21T16:38:32;16.85;;;7.95;;
71730;SDS011;65964;43.496;3.710;2023-02-21T16:40:58;25.10;;;10.07;;
71730;SDS011;65964;43.496;3.710;2023-02-21T16:43:25;16.80;;;9.15;;
71730;SDS011;65964;43.496;3.710;2023-02-21T16:45:52;15.48;;;6.57;;
71730;SDS011;65964;43.496;3.710;2023-02-21T16:48:20;13.48;;;5.75;;
71730;SDS011;65964;43.496;3.710;2023-02-21T16:50:48;13.23;;;5.72;;
71730;SDS011;65964;43.496;3.710;2023-02-21T16:53:15;13.25;;;6.00;;
71730;SDS011;65964;43.496;3.710;2023-02-21T16:55:42;15.57;;;5.57;;
71730;SDS011;65964;43.496;3.710;2023-02-21T16:58:27;12.55;;;5.68;;
71730;SDS011;65964;43.496;3.710;2023-02-21T17:00:56;15.75;;;5.78;;
71730;SDS011;65964;43.496;3.710;2023-02-21T17:03:23;13.43;;;6.30;;
71730;SDS011;65964;43.496;3.710;2023-02-21T17:05:50;12.43;;;5.63;;
71730;SDS011;65964;43.496;3.710;2023-02-21T17:08:16;14.27;;;6.28;;
71730;SDS011;65964;43.496;3.710;2023-02-21T17:10:43;18.08;;;7.85;;
71730;SDS011;65964;43.496;3.710;2023-02-21T17:13:09;19.02;;;9.65;;
71730;SDS011;65964;43.496;3.710;2023-02-21T17:15:35;19.73;;;8.55;;
71730;SDS011;65964;43.496;3.710;2023-02-21T17:18:01;18.05;;;7.90;;
71730;SDS011;65964;43.496;3.710;2023-02-21T17:20:28;22.63;;;11.60;;
71730;SDS011;65964;43.496;3.710;2023-02-21T17:22:54;20.83;;;9.10;;
71730;SDS011;65964;43.496;3.710;2023-02-21T17:25:22;26.70;;;9.70;;
71730;SDS011;65964;43.496;3.710;2023-02-21T17:27:49;17.15;;;8.32;;
71730;SDS011;65964;43.496;3.710;2023-02-21T17:30:15;14.20;;;8.05;;
71730;SDS011;65964;43.496;3.710;2023-02-21T17:32:42;21.30;;;8.13;;
71730;SDS011;65964;43.496;3.710;2023-02-21T17:35:08;17.83;;;8.60;;
71730;SDS011;65964;43.496;3.710;2023-02-21T17:37:34;17.67;;;8.90;;
71730;SDS011;65964;43.496;3.710;2023-02-21T17:40:00;20.00;;;10.45;;
71730;SDS011;65964;43.496;3.710;2023-02-21T17:42:26;30.80;;;12.68;;
71730;SDS011;65964;43.496;3.710;2023-02-21T17:44:52;19.67;;;9.48;;
71730;SDS011;65964;43.496;3.710;2023-02-21T17:47:19;16.17;;;9.13;;
71730;SDS011;65964;43.496;3.710;2023-02-21T17:49:49;15.35;;;8.88;;
71730;SDS011;65964;43.496;3.710;2023-02-21T17:52:17;19.20;;;9.45;;
71730;SDS011;65964;43.496;3.710;2023-02-21T17:54:43;15.82;;;9.25;;
71730;SDS011;65964;43.496;3.710;2023-02-21T17:57:09;22.27;;;9.25;;
71730;SDS011;65964;43.496;3.710;2023-02-21T17:59:36;16.92;;;9.15;;
71730;SDS011;65964;43.496;3.710;2023-02-21T18:02:02;21.17;;;9.23;;
71730;SDS011;65964;43.496;3.710;2023-02-21T18:04:28;22.13;;;10.50;;